createdAt,value
2022-10-04T00:04:15.716Z,9.66
2022-10-04T00:09:20.395Z,9.63
2022-10-04T00:14:30.690Z,9.62
2022-10-04T00:19:40.318Z,9.63
2022-10-04T00:25:08.351Z,9.60
2022-10-04T00:30:15.807Z,9.63
2022-10-04T00:35:43.405Z,9.51
2022-10-04T00:40:46.482Z,9.57
2022-10-04T00:46:08.075Z,9.64
2022-10-04T00:51:12.895Z,9.62
2022-10-04T00:56:18.826Z,9.62
2022-10-04T01:01:24.157Z,9.66
2022-10-04T01:06:26.399Z,9.78
2022-10-04T01:11:30.138Z,10.06
2022-10-04T01:16:36.246Z,9.96
2022-10-04T01:21:38.674Z,9.98
2022-10-04T01:26:41.844Z,10.00
2022-10-04T01:31:45.393Z,9.98
2022-10-04T01:36:48.701Z,9.86
2022-10-04T01:41:49.934Z,9.79
2022-10-04T01:46:54.615Z,9.78
2022-10-04T01:51:57.390Z,9.63
2022-10-04T01:57:02.377Z,9.64
2022-10-04T02:02:09.533Z,9.78
2022-10-04T02:07:15.360Z,9.90
2022-10-04T02:12:18.432Z,9.89
2022-10-04T02:17:25.478Z,9.89
2022-10-04T02:22:26.906Z,9.95
2022-10-04T02:27:31.649Z,9.93
2022-10-04T02:32:52.309Z,9.91
2022-10-04T02:37:59.101Z,10.00
2022-10-04T02:43:03.060Z,9.96
2022-10-04T02:48:22.176Z,9.81
2022-10-04T02:53:43.344Z,9.73
2022-10-04T02:58:44.665Z,9.65
2022-10-04T03:03:47.612Z,9.66
2022-10-04T03:08:50.697Z,9.61
2022-10-04T03:13:54.172Z,9.48
2022-10-04T03:18:57.257Z,9.37
2022-10-04T03:24:00.997Z,9.29
2022-10-04T03:29:05.561Z,9.37
2022-10-04T03:34:15.401Z,9.39
2022-10-04T03:39:26.778Z,9.20
2022-10-04T03:44:28.285Z,9.13
2022-10-04T03:49:35.581Z,9.03
2022-10-04T03:54:36.925Z,8.88
2022-10-04T03:59:38.279Z,8.86
2022-10-04T04:04:42.982Z,8.63
2022-10-04T04:09:46.506Z,8.59
2022-10-04T04:14:50.364Z,8.54
2022-10-04T04:19:52.719Z,8.37
2022-10-04T04:24:54.305Z,8.46
2022-10-04T04:29:55.608Z,8.26
2022-10-04T04:34:57.975Z,8.15
2022-10-04T04:40:11.251Z,8.08
2022-10-04T04:45:17.250Z,8.15
2022-10-04T04:50:20.146Z,8.06
2022-10-04T04:55:23.469Z,8.06
2022-10-04T05:00:29.705Z,8.10
2022-10-04T05:05:35.087Z,7.93
2022-10-04T05:10:36.658Z,7.93
2022-10-04T05:15:40.333Z,7.94
2022-10-04T05:20:46.412Z,7.87
2022-10-04T05:25:51.402Z,7.81
2022-10-04T05:31:08.123Z,7.87
2022-10-04T05:36:13.748Z,7.81
2022-10-04T05:41:34.003Z,8.10
2022-10-04T05:46:44.093Z,8.15
2022-10-04T05:51:54.742Z,8.16
2022-10-04T05:57:08.375Z,8.38
2022-10-04T06:02:27.882Z,8.47
2022-10-04T06:07:42.072Z,8.45
2022-10-04T06:12:44.565Z,8.54
2022-10-04T06:17:58.556Z,8.62
2022-10-04T06:23:00.909Z,8.57
2022-10-04T06:28:16.297Z,8.58
2022-10-04T06:33:20.600Z,8.59
2022-10-04T06:38:37.947Z,8.59
2022-10-04T06:43:44.987Z,8.59
2022-10-04T06:48:49.362Z,8.58
2022-10-04T06:54:08.981Z,8.58
2022-10-04T06:59:19.560Z,8.52
2022-10-04T07:04:56.170Z,8.55
2022-10-04T07:10:16.708Z,8.67
2022-10-04T07:15:21.675Z,8.83
2022-10-04T07:20:25.374Z,8.93
2022-10-04T07:25:28.917Z,9.12
2022-10-04T07:30:35.828Z,9.28
2022-10-04T07:35:43.899Z,9.52
2022-10-04T07:40:54.407Z,9.70
2022-10-04T07:46:10.911Z,9.80
2022-10-04T07:51:23.734Z,9.89
2022-10-04T07:56:38.443Z,10.09
2022-10-04T08:01:45.897Z,10.32
2022-10-04T08:07:01.152Z,10.48
2022-10-04T08:12:08.472Z,10.71
2022-10-04T08:17:15.426Z,10.95
2022-10-04T08:22:35.994Z,11.11
2022-10-04T08:28:08.688Z,11.17
2022-10-04T08:33:18.071Z,11.40
2022-10-04T08:38:19.693Z,11.68
2022-10-04T08:43:31.251Z,12.00
2022-10-04T08:48:50.503Z,12.10
2022-10-04T08:53:57.836Z,12.27
2022-10-04T08:59:04.170Z,12.29
2022-10-04T09:04:21.932Z,12.54
2022-10-04T09:09:26.405Z,12.73
2022-10-04T09:14:31.741Z,12.79
2022-10-04T09:19:51.873Z,12.89
2022-10-04T09:24:53.172Z,12.87
2022-10-04T09:29:54.427Z,13.05
2022-10-04T09:35:07.843Z,13.21
2022-10-04T09:40:28.651Z,13.43
2022-10-04T09:45:35.569Z,13.57
2022-10-04T09:50:52.348Z,13.69
2022-10-04T09:55:59.466Z,13.70
2022-10-04T10:01:21.022Z,13.71
2022-10-04T10:06:22.352Z,13.99
2022-10-04T10:11:54.112Z,14.06
2022-10-04T10:17:20.560Z,14.50
2022-10-04T10:22:31.291Z,14.24
2022-10-04T10:27:32.571Z,15.22
2022-10-04T10:32:42.770Z,15.29
2022-10-04T10:38:03.647Z,15.95
2022-10-04T10:43:21.204Z,16.09
2022-10-04T10:48:22.527Z,16.04
2022-10-04T10:53:29.947Z,15.38
2022-10-04T10:58:50.294Z,16.76
2022-10-04T11:03:54.768Z,16.94
2022-10-04T11:09:16.439Z,16.31
2022-10-04T11:14:21.059Z,16.61
2022-10-04T11:19:29.056Z,16.38
2022-10-04T11:24:43.280Z,16.61
2022-10-04T11:29:56.118Z,16.95
2022-10-04T11:35:00.562Z,17.12
2022-10-04T11:40:20.705Z,17.17
2022-10-04T11:45:27.258Z,17.48
2022-10-04T11:50:35.357Z,17.60
2022-10-04T11:55:37.264Z,17.30
2022-10-04T12:00:54.769Z,17.20
2022-10-04T12:06:22.520Z,16.58
2022-10-04T12:11:52.166Z,16.58
2022-10-04T12:17:12.273Z,16.86
2022-10-04T12:22:28.806Z,16.47
2022-10-04T12:27:40.347Z,16.64
2022-10-04T12:32:58.283Z,17.08
2022-10-04T12:38:11.530Z,17.60
2022-10-04T12:43:33.140Z,17.59
2022-10-04T12:48:53.824Z,17.55
2022-10-04T12:54:01.360Z,17.75
2022-10-04T12:59:02.689Z,17.59
2022-10-04T13:04:13.153Z,17.37
2022-10-04T13:09:16.832Z,17.43
2022-10-04T13:14:20.862Z,17.39
2022-10-04T13:19:38.345Z,17.17
2022-10-04T13:24:55.286Z,17.32
2022-10-04T13:30:18.544Z,17.29
2022-10-04T13:35:21.045Z,17.37
2022-10-04T13:40:22.482Z,17.14
2022-10-04T13:45:34.828Z,17.29
2022-10-04T13:50:54.549Z,17.31
2022-10-04T13:56:29.829Z,17.12
2022-10-04T14:01:31.141Z,17.13
2022-10-04T14:06:45.520Z,17.07
2022-10-04T14:12:25.905Z,16.91
2022-10-04T14:17:46.266Z,17.03
2022-10-04T14:23:07.258Z,17.08
2022-10-04T14:28:47.410Z,16.92
2022-10-04T14:34:07.491Z,16.93
2022-10-04T14:39:27.886Z,16.87
2022-10-04T14:44:47.632Z,16.86
2022-10-04T14:50:07.021Z,16.81
2022-10-04T14:55:13.240Z,16.83
2022-10-04T15:00:21.853Z,16.95
2022-10-04T15:05:31.594Z,17.00
2022-10-04T15:10:38.241Z,17.01
2022-10-04T15:15:59.033Z,16.97
2022-10-04T15:21:03.585Z,16.88
2022-10-04T15:26:27.840Z,16.88
2022-10-04T15:31:55.483Z,16.76
2022-10-04T15:37:03.982Z,16.66
2022-10-04T15:42:24.855Z,16.38
2022-10-04T15:47:55.602Z,16.50
2022-10-04T15:52:58.024Z,16.44
2022-10-04T15:58:16.391Z,16.35
2022-10-04T16:03:36.135Z,16.27
2022-10-04T16:15:19.858Z,16.06
2022-10-04T16:20:24.884Z,16.05
2022-10-04T16:25:26.273Z,16.05
2022-10-04T16:30:32.724Z,15.89
2022-10-04T16:35:34.734Z,15.85
2022-10-04T16:40:46.905Z,15.60
2022-10-04T16:46:03.970Z,15.46
2022-10-04T16:51:05.353Z,15.40
2022-10-04T16:56:11.469Z,14.97
2022-10-04T17:01:22.458Z,14.89
2022-10-04T17:06:43.163Z,15.15
2022-10-04T17:11:56.717Z,14.94
2022-10-04T17:17:01.105Z,14.78
2022-10-04T17:22:15.956Z,14.69
2022-10-04T17:27:24.505Z,14.47
2022-10-04T17:32:30.570Z,14.41
2022-10-04T17:37:34.727Z,14.36
2022-10-04T17:42:40.267Z,14.54
2022-10-04T17:48:21.218Z,14.52
2022-10-04T17:53:46.104Z,14.44
2022-10-04T17:59:05.591Z,14.48
2022-10-04T18:04:30.474Z,14.37
2022-10-04T18:09:42.989Z,14.50
2022-10-04T18:15:03.475Z,14.37
2022-10-04T18:20:08.199Z,14.11
2022-10-04T18:25:14.565Z,14.17
2022-10-04T18:30:18.824Z,14.18
2022-10-04T18:35:24.961Z,14.19
2022-10-04T18:40:32.149Z,14.32
2022-10-04T18:45:34.317Z,14.31
2022-10-04T18:50:37.896Z,14.37
2022-10-04T18:55:39.645Z,14.30
2022-10-04T19:01:09.382Z,14.43
2022-10-04T19:06:24.486Z,14.50
2022-10-04T19:11:33.699Z,14.38
2022-10-04T19:16:38.109Z,14.45
2022-10-04T19:21:45.378Z,14.40
2022-10-04T19:27:10.370Z,14.60
2022-10-04T19:32:18.954Z,14.55
2022-10-04T19:37:40.343Z,14.44
2022-10-04T19:42:48.307Z,14.52
2022-10-04T19:47:56.670Z,14.52
2022-10-04T19:53:04.050Z,14.41
2022-10-04T19:58:05.325Z,14.45
2022-10-04T20:03:12.235Z,14.40
2022-10-04T20:08:15.399Z,14.58
2022-10-04T20:13:21.139Z,14.53
2022-10-04T20:18:31.844Z,14.54
2022-10-04T20:23:47.838Z,14.60
2022-10-04T20:28:49.659Z,14.43
2022-10-04T20:33:51.374Z,14.61
2022-10-04T20:38:59.748Z,14.50
2022-10-04T20:44:02.049Z,14.65
2022-10-04T20:49:09.825Z,14.62
2022-10-04T20:54:16.601Z,14.66
2022-10-04T20:59:18.306Z,14.60
2022-10-04T21:04:32.204Z,14.58
2022-10-04T21:09:35.299Z,14.60
2022-10-04T21:14:37.675Z,14.56
2022-10-04T21:19:45.200Z,14.58
2022-10-04T21:24:49.272Z,14.43
2022-10-04T21:29:53.504Z,14.45
2022-10-04T21:34:55.090Z,14.40
2022-10-04T21:39:56.509Z,14.35
2022-10-04T21:44:57.910Z,14.36
2022-10-04T21:49:59.270Z,14.36
2022-10-04T21:55:00.644Z,14.32
2022-10-04T22:00:02.118Z,14.29
2022-10-04T22:05:03.497Z,14.35
2022-10-04T22:10:05.388Z,14.30
2022-10-04T22:15:06.893Z,14.26
2022-10-04T22:20:08.485Z,14.28
2022-10-04T22:25:13.256Z,14.32
2022-10-04T22:30:22.432Z,14.37
2022-10-04T22:35:24.188Z,14.35
2022-10-04T22:40:25.751Z,14.27
2022-10-04T22:45:29.285Z,14.36
2022-10-04T22:50:32.496Z,14.31
2022-10-04T22:55:33.968Z,14.27
2022-10-04T23:00:35.263Z,14.41
2022-10-04T23:05:36.551Z,14.36
2022-10-04T23:10:37.860Z,14.44
2022-10-04T23:15:39.441Z,14.32
2022-10-04T23:20:40.855Z,14.30
2022-10-04T23:25:45.723Z,14.19
2022-10-04T23:31:00.209Z,14.22
2022-10-04T23:36:01.545Z,14.21
2022-10-04T23:41:03.040Z,14.21
2022-10-04T23:46:21.705Z,14.20
2022-10-04T23:51:23.073Z,14.09
2022-10-04T23:56:27.617Z,14.23
